Innset, Norway

11:45 AM CEST on March 30, 2017 (GMT +0200)
Bardu | | Change Station

Elev 1663 ft 68.66 °N, 18.88 °E | Updated 32 seconds ago

Overcast
Overcast
23.4 °F
Feels Like 16 °F
N
6.0
Wind Variable Wind from West
Gusts 12.0 mph

Today
High -- | Low -- °F
--% Chance of Precip.
Yesterday
High -- | Low -- °F
Precip. -- in
Pressure 29.89 in
Visibility 6.2 miles
Clouds Few 1200 ft
Scattered Clouds 3500 ft
Mostly Cloudy 8000 ft
Windchill 16 °F
Dew Point 22 °F
Humidity 95%
Rainfall 0.00 in
Snow Depth Not available.
6:00 AM 7:40 PM
Waxing Crescent, 7% visible
METAR ENDU 300920Z 30006KT 270V360 9999 VCSH FEW012 SCT035 BKN080 M03/M06 Q1012 TEMPO 3000 -SHSN VV014 RMK
Pressure 29.89 in
Visibility 6.2 miles
Clouds Few 1200 ft
Scattered Clouds 3500 ft
Mostly Cloudy 8000 ft
Windchill 16 °F
Dew Point 22 °F
Humidity 95%
Rainfall 0.00 in
Snow Depth Not available.
6:00 AM 7:40 PM
Waxing Crescent, 7% visible
METAR ENDU 300920Z 30006KT 270V360 9999 VCSH FEW012 SCT035 BKN080 M03/M06 Q1012 TEMPO 3000 -SHSN VV014 RMK

Get Severe Weather Alerts

Thanks for signing up!

Be on the lookout for a verification email in your inbox.

You'll start receiving the daily forecast at 8 AM.

×

10-Day Weather Forecast

×

Almanac

Astronomy

Mar. 30, 2017 Rise Set
Actual Time
Civil Twilight
Nautical Twilight
Astronomical Twilight
Moon
Length of Visible Light
Length of Day
Tomorrow will be .
, % of the Moon is Illuminated

Today's Extremes

Country Highs Country Lows

Community

WunderPhotos

Upload Photos

1,962,540 photos uploaded!

WunderBlog® & News

Nearby

Air Quality

  Air Quality AQ Index Pollutant
Not available.

Snow Depth

Station Depth Elevation

Earthquake Activity

City Distance Mag. Time & Date
Minimum magnitude displayed is 2.5.

Earthquake Activity

City Distance Mag. Time & Date
Minimum magnitude displayed is 2.5.

Coastal Water Temperatures

Place Temperature

Stations

Nearby Weather Stations

Station Location Temp. Windchill Dew Point Humidity Wind Precip. Elev Updated Type